Time,TemperatureF,DewpointF,PressureIn,WindDirection,WindDirectionDegrees,WindSpeedMPH,WindSpeedGustMPH,Humidity,HourlyPrecipIn,Conditions,Clouds,dailyrainin,SoftwareType,DateUTC
2013-01-13 00:03:00,21.2,19.0,29.98,NE,36,8.1,11.5,91,0.00,,,0.00,WeatherDisplay:10.37,2013-01-13 06:03:00,
2013-01-13 00:08:00,21.2,19.2,29.97,NNE,22,8.2,10.0,92,0.00,,,0.00,WeatherDisplay:10.37,2013-01-13 06:08:00,
2013-01-13 00:13:00,21.2,19.2,29.96,NNW,333,9.7,11.5,92,0.00,,,0.00,WeatherDisplay:10.37,2013-01-13 06:13:00,
2013-01-13 00:18:00,21.2,19.2,29.97,North,11,5.1,10.4,92,0.00,,,0.00,WeatherDisplay:10.37,2013-01-13 06:18:00,
2013-01-13 00:23:00,21.3,19.3,29.97,NE,38,8.2,10.4,92,0.00,,,0.00,WeatherDisplay:10.37,2013-01-13 06:23:00,
2013-01-13 00:28:00,21.3,19.3,29.97,NE,36,7.2,8.1,92,0.00,,,0.00,WeatherDisplay:10.37,2013-01-13 06:28:00,
2013-01-13 00:33:00,21.4,19.4,29.97,North,349,5.8,10.4,92,0.00,,,0.00,WeatherDisplay:10.37,2013-01-13 06:33:00,
2013-01-13 00:38:00,21.4,19.4,29.97,NE,36,5.8,8.1,92,0.00,,,0.00,WeatherDisplay:10.37,2013-01-13 06:38:00,
2013-01-13 00:43:00,21.4,19.2,29.97,North,352,5.5,8.0,91,0.00,,,0.00,WeatherDisplay:10.37,2013-01-13 06:43:00,
2013-01-13 00:49:00,21.4,19.4,29.96,North,6,5.2,5.2,92,0.00,,,0.00,WeatherDisplay:10.37,2013-01-13 06:49:00,
2013-01-13 00:54:00,21.3,19.1,29.95,NNE,16,8.5,11.5,91,0.00,,,0.00,WeatherDisplay:10.37,2013-01-13 06:54:00,
2013-01-13 00:59:00,21.2,18.7,29.95,NE,45,6.9,9.2,90,0.00,,,0.00,WeatherDisplay:10.37,2013-01-13 06:59:00,
2013-01-13 01:04:00,21.1,18.4,29.95,ENE,63,8.1,11.5,89,0.00,,,0.00,WeatherDisplay:10.37,2013-01-13 07:04:00,
2013-01-13 01:09:00,21.0,18.3,29.95,North,356,6.4,8.1,89,0.00,,,0.00,WeatherDisplay:10.37,2013-01-13 07:09:00,
2013-01-13 01:14:00,21.0,18.3,29.98,NNE,12,3.5,6.0,89,0.00,,,0.00,WeatherDisplay:10.37,2013-01-13 07:14:00,
2013-01-13 01:19:00,21.1,18.4,29.98,NE,36,5.2,7.0,89,0.00,,,0.00,WeatherDisplay:10.37,2013-01-13 07:19:00,
2013-01-13 01:24:00,21.2,18.5,29.98,WNW,302,5.8,8.1,89,0.00,,,0.00,WeatherDisplay:10.37,2013-01-13 07:24:00,
2013-01-13 01:29:00,21.3,18.6,29.99,North,3,7.2,11.5,89,0.00,,,0.00,WeatherDisplay:10.37,2013-01-13 07:29:00,
2013-01-13 01:34:00,21.3,18.6,30.00,NW,305,6.3,8.1,89,0.00,,,0.00,WeatherDisplay:10.37,2013-01-13 07:34:00,
2013-01-13 01:39:00,21.3,18.3,29.99,NE,53,6.3,8.1,88,0.00,,,0.00,WeatherDisplay:10.37,2013-01-13 07:39:00,
2013-01-13 01:44:00,21.2,18.2,29.99,NW,312,6.1,8.1,88,0.00,,,0.00,WeatherDisplay:10.37,2013-01-13 07:44:00,
2013-01-13 01:49:00,21.1,17.3,30.00,NW,318,6.8,10.4,85,0.00,,,0.00,WeatherDisplay:10.37,2013-01-13 07:49:00,
2013-01-13 01:54:00,21.0,17.2,30.00,NNE,23,6.2,10.4,85,0.00,,,0.00,WeatherDisplay:10.37,2013-01-13 07:54:00,
2013-01-13 01:59:00,21.1,17.6,30.01,NW,322,6.1,10.4,86,0.00,,,0.00,WeatherDisplay:10.37,2013-01-13 07:59:00,
2013-01-13 02:04:00,21.1,17.3,30.02,NNW,343,8.0,10.4,85,0.00,,,0.00,WeatherDisplay:10.37,2013-01-13 08:04:00,
2013-01-13 02:09:00,21.1,17.3,30.02,NE,38,10.0,11.5,85,0.00,,,0.00,WeatherDisplay:10.37,2013-01-13 08:09:00,
2013-01-13 02:14:00,21.0,16.6,30.01,North,6,7.3,11.5,83,0.00,,,0.00,WeatherDisplay:10.37,2013-01-13 08:14:00,
2013-01-13 02:19:00,20.9,16.0,30.00,NNW,347,6.9,10.4,81,0.00,,,0.00,WeatherDisplay:10.37,2013-01-13 08:19:00,
2013-01-13 02:24:00,20.9,16.5,30.00,NE,38,4.6,10.4,83,0.00,,,0.00,WeatherDisplay:10.37,2013-01-13 08:24:00,
2013-01-13 02:29:00,20.8,15.9,30.00,NW,314,6.6,10.4,81,0.00,,,0.00,WeatherDisplay:10.37,2013-01-13 08:29:00,
2013-01-13 02:34:00,20.9,16.3,30.00,North,6,5.3,8.1,82,0.00,,,0.00,WeatherDisplay:10.37,2013-01-13 08:34:00,
2013-01-13 02:39:00,21.0,16.1,30.01,NW,321,7.6,11.5,81,0.00,,,0.00,WeatherDisplay:10.37,2013-01-13 08:39:00,
2013-01-13 02:44:00,21.0,16.4,30.01,NW,312,7.6,11.5,82,0.00,,,0.00,WeatherDisplay:10.37,2013-01-13 08:44:00,
2013-01-13 02:49:00,21.1,16.5,30.01,NNE,16,5.5,8.1,82,0.00,,,0.00,WeatherDisplay:10.37,2013-01-13 08:49:00,
2013-01-13 02:54:00,21.1,16.5,30.01,NNW,335,8.3,12.7,82,0.00,,,0.00,WeatherDisplay:10.37,2013-01-13 08:54:00,
2013-01-13 02:59:00,21.1,16.2,30.00,NNE,16,7.7,9.2,81,0.00,,,0.00,WeatherDisplay:10.37,2013-01-13 08:59:00,
2013-01-13 03:04:00,20.9,16.0,30.00,NNW,337,7.7,11.5,81,0.00,,,0.00,WeatherDisplay:10.37,2013-01-13 09:04:00,
2013-01-13 03:10:00,20.8,15.9,30.01,NW,308,9.2,11.5,81,0.00,,,0.00,WeatherDisplay:10.37,2013-01-13 09:10:00,
2013-01-13 03:15:00,20.9,16.0,30.01,NW,318,10.5,12.7,81,0.00,,,0.00,WeatherDisplay:10.37,2013-01-13 09:15:00,
2013-01-13 03:20:00,20.8,15.9,30.01,North,356,7.9,11.5,81,0.00,,,0.00,WeatherDisplay:10.37,2013-01-13 09:20:00,
2013-01-13 03:25:00,20.8,16.2,30.02,NW,317,9.9,11.5,82,0.00,,,0.00,WeatherDisplay:10.37,2013-01-13 09:25:00,
2013-01-13 03:30:00,20.6,15.7,30.01,NW,314,10.9,11.5,81,0.00,,,0.00,WeatherDisplay:10.37,2013-01-13 09:30:00,
2013-01-13 03:35:00,20.4,15.5,30.01,NW,314,10.0,14.0,81,0.00,,,0.00,WeatherDisplay:10.37,2013-01-13 09:35:00,
2013-01-13 03:40:00,20.3,15.7,30.02,NW,312,9.0,13.0,82,0.00,,,0.00,WeatherDisplay:10.37,2013-01-13 09:40:00,
2013-01-13 03:45:00,20.3,15.7,30.02,NW,325,8.9,11.5,82,0.00,,,0.00,WeatherDisplay:10.37,2013-01-13 09:45:00,
2013-01-13 03:50:00,20.1,14.9,30.01,NW,314,9.1,12.7,80,0.00,,,0.00,WeatherDisplay:10.37,2013-01-13 09:50:00,
2013-01-13 03:55:00,20.0,15.1,30.01,NW,311,8.3,10.4,81,0.00,,,0.00,WeatherDisplay:10.37,2013-01-13 09:55:00,
2013-01-13 04:00:00,20.0,15.4,30.01,NNW,341,6.2,9.2,82,0.00,CLR,,0.00,WeatherDisplay:10.37,2013-01-13 10:00:00,
2013-01-13 04:05:00,20.0,15.1,30.03,WNW,303,9.7,12.7,81,0.00,CLR,,0.00,WeatherDisplay:10.37,2013-01-13 10:05:00,
2013-01-13 04:10:00,19.8,14.9,30.02,NW,308,8.4,10.4,81,0.00,CLR,,0.00,WeatherDisplay:10.37,2013-01-13 10:10:00,
2013-01-13 04:15:00,19.8,14.6,30.03,NW,304,9.1,11.5,80,0.00,CLR,,0.00,WeatherDisplay:10.37,2013-01-13 10:15:00,
2013-01-13 04:20:00,19.8,14.9,30.03,WNW,299,6.8,8.1,81,0.00,CLR,,0.00,WeatherDisplay:10.37,2013-01-13 10:20:00,
2013-01-13 04:25:00,19.7,14.5,30.04,NW,305,10.1,12.7,80,0.00,CLR,,0.00,WeatherDisplay:10.37,2013-01-13 10:25:00,
2013-01-13 04:30:00,19.7,14.5,30.04,NW,309,9.5,11.5,80,0.00,CLR,,0.00,WeatherDisplay:10.37,2013-01-13 10:30:00,
2013-01-13 04:35:00,19.7,14.8,30.06,NW,313,7.8,9.2,81,0.00,CLR,,0.00,WeatherDisplay:10.37,2013-01-13 10:35:00,
2013-01-13 04:40:00,19.7,14.8,30.06,WNW,302,10.3,11.5,81,0.00,CLR,,0.00,WeatherDisplay:10.37,2013-01-13 10:40:00,
2013-01-13 04:45:00,19.6,14.1,30.06,NW,315,8.1,9.2,79,0.00,CLR,,0.00,WeatherDisplay:10.37,2013-01-13 10:45:00,
2013-01-13 04:50:00,19.5,14.3,30.06,NW,321,7.9,9.2,80,0.00,CLR,,0.00,WeatherDisplay:10.37,2013-01-13 10:50:00,
2013-01-13 04:55:00,19.5,14.3,30.06,WNW,302,7.5,10.4,80,0.00,CLR,,0.00,WeatherDisplay:10.37,2013-01-13 10:55:00,
2013-01-13 05:00:00,19.4,14.5,30.05,NW,309,8.7,9.2,81,0.00,CLR,,0.00,WeatherDisplay:10.37,2013-01-13 11:00:00,
2013-01-13 05:05:00,19.3,14.4,30.04,NNW,332,8.6,10.4,81,0.00,CLR,,0.00,WeatherDisplay:10.37,2013-01-13 11:05:00,
2013-01-13 05:10:00,19.2,14.3,30.04,WNW,295,9.5,11.5,81,0.00,CLR,,0.00,WeatherDisplay:10.37,2013-01-13 11:10:00,
2013-01-13 05:15:00,19.2,14.6,30.03,NW,310,6.8,11.5,82,0.00,CLR,,0.00,WeatherDisplay:10.37,2013-01-13 11:15:00,
2013-01-13 05:21:00,19.2,14.6,30.04,WNW,287,7.3,9.2,82,0.00,CLR,,0.00,WeatherDisplay:10.37,2013-01-13 11:21:00,
2013-01-13 05:26:00,19.1,14.2,30.04,WNW,302,9.1,11.5,81,0.00,CLR,,0.00,WeatherDisplay:10.37,2013-01-13 11:26:00,
2013-01-13 05:31:00,19.0,14.4,30.05,NW,320,8.7,11.5,82,0.00,CLR,,0.00,WeatherDisplay:10.37,2013-01-13 11:31:00,
2013-01-13 05:36:00,19.0,14.4,30.04,WNW,297,8.1,11.5,82,0.00,CLR,,0.00,WeatherDisplay:10.37,2013-01-13 11:36:00,
2013-01-13 05:41:00,19.0,14.1,30.04,NW,316,9.3,11.5,81,0.00,CLR,,0.00,WeatherDisplay:10.37,2013-01-13 11:41:00,
2013-01-13 05:46:00,18.9,14.3,30.04,NW,309,9.1,11.5,82,0.00,CLR,,0.00,WeatherDisplay:10.37,2013-01-13 11:46:00,
2013-01-13 05:51:00,18.9,14.3,30.04,NW,316,10.1,11.5,82,0.00,CLR,,0.00,WeatherDisplay:10.37,2013-01-13 11:51:00,
2013-01-13 05:56:00,18.8,14.2,30.04,NW,308,8.4,11.5,82,0.00,CLR,,0.00,WeatherDisplay:10.37,2013-01-13 11:56:00,
2013-01-13 06:01:00,18.9,14.6,30.05,NW,308,8.4,10.4,83,0.00,CLR,,0.00,WeatherDisplay:10.37,2013-01-13 12:01:00,
2013-01-13 06:06:00,18.8,14.2,30.05,NW,314,9.0,13.8,82,0.00,CLR,,0.00,WeatherDisplay:10.37,2013-01-13 12:06:00,
2013-01-13 06:11:00,18.8,14.2,30.04,NNW,330,8.2,12.7,82,0.00,CLR,,0.00,WeatherDisplay:10.37,2013-01-13 12:11:00,
2013-01-13 06:16:00,18.8,14.5,30.05,NW,309,10.1,11.5,83,0.00,CLR,,0.00,WeatherDisplay:10.37,2013-01-13 12:16:00,
2013-01-13 06:21:00,18.8,14.5,30.05,NW,317,6.9,9.2,83,0.00,CLR,,0.00,WeatherDisplay:10.37,2013-01-13 12:21:00,
2013-01-13 06:26:00,18.9,14.9,30.05,NW,305,4.7,6.9,84,0.00,CLR,,0.00,WeatherDisplay:10.37,2013-01-13 12:26:00,
2013-01-13 06:31:00,18.9,14.6,30.06,NNW,333,8.2,11.5,83,0.00,CLR,,0.00,WeatherDisplay:10.37,2013-01-13 12:31:00,
2013-01-13 06:36:00,18.8,14.5,30.06,NW,315,6.9,11.0,83,0.00,CLR,,0.00,WeatherDisplay:10.37,2013-01-13 12:36:00,
2013-01-13 06:41:00,18.8,14.5,30.06,NW,319,8.3,10.4,83,0.00,CLR,,0.00,WeatherDisplay:10.37,2013-01-13 12:41:00,
2013-01-13 06:46:00,18.8,14.8,30.06,NW,308,9.1,10.4,84,0.00,CLR,,0.00,WeatherDisplay:10.37,2013-01-13 12:46:00,
2013-01-13 06:51:00,18.8,14.5,30.07,NW,305,7.7,10.4,83,0.00,CLR,,0.00,WeatherDisplay:10.37,2013-01-13 12:51:00,
2013-01-13 06:56:00,18.7,14.4,30.08,NW,318,9.2,11.5,83,0.00,CLR,,0.00,WeatherDisplay:10.37,2013-01-13 12:56:00,
2013-01-13 07:01:00,18.4,14.1,30.08,WNW,297,11.0,13.8,83,0.00,CLR,,0.00,WeatherDisplay:10.37,2013-01-13 13:01:00,
2013-01-13 07:06:00,18.3,13.7,30.09,NW,305,8.8,11.5,82,0.00,CLR,,0.00,WeatherDisplay:10.37,2013-01-13 13:06:00,
2013-01-13 07:11:00,18.2,13.6,30.09,NW,305,8.6,9.2,82,0.00,CLR,,0.00,WeatherDisplay:10.37,2013-01-13 13:11:00,
2013-01-13 07:16:00,18.1,13.5,30.09,NW,309,10.3,11.5,82,0.00,CLR,,0.00,WeatherDisplay:10.37,2013-01-13 13:16:00,
2013-01-13 07:21:00,18.0,13.2,30.09,NW,322,9.6,11.5,81,0.00,CLR,,0.00,WeatherDisplay:10.37,2013-01-13 13:21:00,
2013-01-13 07:26:00,17.9,13.3,30.09,WNW,298,10.2,12.7,82,0.00,CLR,,0.00,WeatherDisplay:10.37,2013-01-13 13:26:00,
2013-01-13 07:31:00,17.8,13.2,30.08,NW,315,9.3,12.0,82,0.00,CLR,,0.00,WeatherDisplay:10.37,2013-01-13 13:31:00,
2013-01-13 07:36:00,17.7,13.1,30.08,NW,314,9.8,12.7,82,0.00,CLR,,0.00,WeatherDisplay:10.37,2013-01-13 13:36:00,
2013-01-13 07:41:00,17.7,13.1,30.10,NW,314,9.6,11.5,82,0.00,CLR,,0.00,WeatherDisplay:10.37,2013-01-13 13:41:00,
2013-01-13 07:46:00,17.5,12.1,30.10,NNW,337,8.5,13.8,79,0.00,CLR,,0.00,WeatherDisplay:10.37,2013-01-13 13:46:00,
2013-01-13 07:51:00,17.4,12.3,30.09,NW,309,8.9,10.4,80,0.00,CLR,,0.00,WeatherDisplay:10.37,2013-01-13 13:51:00,
2013-01-13 07:56:00,17.3,11.9,30.10,NW,322,11.7,13.8,79,0.00,CLR,,0.00,WeatherDisplay:10.37,2013-01-13 13:56:00,
2013-01-13 08:01:00,17.3,11.9,30.11,WNW,302,11.3,13.8,79,0.00,CLR,,0.00,WeatherDisplay:10.37,2013-01-13 14:01:00,
2013-01-13 08:06:00,17.1,11.4,30.10,WNW,298,9.1,12.0,78,0.00,CLR,,0.00,WeatherDisplay:10.37,2013-01-13 14:06:00,
2013-01-13 08:12:00,17.3,11.9,30.11,NW,304,10.1,11.5,79,0.00,CLR,,0.00,WeatherDisplay:10.37,2013-01-13 14:12:00,
2013-01-13 08:17:00,17.2,11.8,30.10,NNW,329,13.4,15.0,79,0.00,CLR,,0.00,WeatherDisplay:10.37,2013-01-13 14:17:00,
2013-01-13 08:22:00,17.0,11.6,30.11,NW,308,13.1,17.3,79,0.00,CLR,,0.00,WeatherDisplay:10.37,2013-01-13 14:22:00,
2013-01-13 08:27:00,17.0,11.3,30.11,WNW,297,13.3,16.1,78,0.00,CLR,,0.00,WeatherDisplay:10.37,2013-01-13 14:27:00,
2013-01-13 08:32:00,17.0,11.9,30.11,NW,314,12.1,13.8,80,0.00,CLR,,0.00,WeatherDisplay:10.37,2013-01-13 14:32:00,
2013-01-13 08:37:00,17.0,11.6,30.12,NW,322,11.3,19.6,79,0.00,CLR,,0.00,WeatherDisplay:10.37,2013-01-13 14:37:00,
2013-01-13 08:42:00,16.9,11.5,30.12,WSW,255,8.7,12.0,79,0.00,CLR,,0.00,WeatherDisplay:10.37,2013-01-13 14:42:00,
2013-01-13 08:47:00,16.8,11.4,30.11,NW,305,10.6,17.3,79,0.00,CLR,,0.00,WeatherDisplay:10.37,2013-01-13 14:47:00,
2013-01-13 08:52:00,16.8,11.7,30.11,NW,326,8.2,12.7,80,0.00,CLR,,0.00,WeatherDisplay:10.37,2013-01-13 14:52:00,
2013-01-13 08:57:00,16.7,11.3,30.11,NNW,332,9.6,15.0,79,0.00,CLR,,0.00,WeatherDisplay:10.37,2013-01-13 14:57:00,
2013-01-13 09:02:00,16.6,11.2,30.11,NW,307,9.4,13.8,79,0.00,CLR,,0.00,WeatherDisplay:10.37,2013-01-13 15:02:00,
2013-01-13 09:07:00,16.7,11.9,30.12,NW,314,6.5,9.2,81,0.00,CLR,,0.00,WeatherDisplay:10.37,2013-01-13 15:07:00,
2013-01-13 09:12:00,16.7,11.6,30.12,NW,321,5.7,10.4,80,0.00,CLR,,0.00,WeatherDisplay:10.37,2013-01-13 15:12:00,
2013-01-13 09:17:00,16.7,11.6,30.11,ENE,72,7.0,10.4,80,0.00,CLR,,0.00,WeatherDisplay:10.37,2013-01-13 15:17:00,
2013-01-13 09:22:00,16.7,11.3,30.11,NW,311,9.1,12.7,79,0.00,CLR,,0.00,WeatherDisplay:10.37,2013-01-13 15:22:00,
2013-01-13 09:27:00,16.7,11.3,30.11,NW,314,12.0,15.0,79,0.00,CLR,,0.00,WeatherDisplay:10.37,2013-01-13 15:27:00,
2013-01-13 09:32:00,16.7,11.6,30.11,NNW,343,11.1,13.8,80,0.00,CLR,,0.00,WeatherDisplay:10.37,2013-01-13 15:32:00,
2013-01-13 09:37:00,16.7,11.3,30.12,North,6,9.1,12.7,79,0.00,CLR,,0.00,WeatherDisplay:10.37,2013-01-13 15:37:00,
2013-01-13 09:42:00,16.8,11.7,30.13,NNW,332,8.6,11.5,80,0.00,CLR,,0.00,WeatherDisplay:10.37,2013-01-13 15:42:00,
2013-01-13 09:47:00,16.6,11.2,30.12,NNW,335,8.9,11.5,79,0.00,CLR,,0.00,WeatherDisplay:10.37,2013-01-13 15:47:00,
2013-01-13 09:52:00,16.6,11.2,30.12,NNW,342,7.2,11.0,79,0.00,CLR,,0.00,WeatherDisplay:10.37,2013-01-13 15:52:00,
2013-01-13 09:57:00,16.5,11.1,30.12,NNW,339,7.5,10.4,79,0.00,CLR,,0.00,WeatherDisplay:10.37,2013-01-13 15:57:00,
2013-01-13 10:02:00,16.5,11.1,30.12,West,266,9.5,12.7,79,0.00,CLR,,0.00,WeatherDisplay:10.37,2013-01-13 16:02:00,
2013-01-13 10:07:00,16.4,11.0,30.14,NW,312,8.1,10.4,79,0.00,CLR,,0.00,WeatherDisplay:10.37,2013-01-13 16:07:00,
2013-01-13 10:13:00,16.6,11.5,30.15,WNW,302,7.1,11.0,80,0.00,CLR,,0.00,WeatherDisplay:10.37,2013-01-13 16:13:00,
2013-01-13 10:18:00,16.6,11.2,30.14,NW,312,10.2,13.8,79,0.00,CLR,,0.00,WeatherDisplay:10.37,2013-01-13 16:18:00,
2013-01-13 10:23:00,16.6,11.2,30.13,NW,325,9.5,13.8,79,0.00,CLR,,0.00,WeatherDisplay:10.37,2013-01-13 16:23:00,
2013-01-13 10:28:00,16.8,11.4,30.13,NNW,330,9.1,13.8,79,0.00,CLR,,0.00,WeatherDisplay:10.37,2013-01-13 16:28:00,
2013-01-13 10:33:00,16.7,11.3,30.13,NW,309,10.0,11.5,79,0.00,CLR,,0.00,WeatherDisplay:10.37,2013-01-13 16:33:00,
2013-01-13 10:38:00,16.7,11.3,30.13,NW,305,11.5,12.7,79,0.00,CLR,,0.00,WeatherDisplay:10.37,2013-01-13 16:38:00,
2013-01-13 10:43:00,16.7,11.3,30.11,North,358,10.5,12.7,79,0.00,CLR,,0.00,WeatherDisplay:10.37,2013-01-13 16:43:00,
2013-01-13 10:48:00,16.6,11.2,30.11,NW,322,10.3,15.0,79,0.00,CLR,,0.00,WeatherDisplay:10.37,2013-01-13 16:48:00,
2013-01-13 10:53:00,16.6,11.8,30.12,NNW,329,9.5,13.0,81,0.00,CLR,,0.00,WeatherDisplay:10.37,2013-01-13 16:53:00,
2013-01-13 10:58:00,16.4,11.0,30.11,NNE,13,9.7,16.1,79,0.00,CLR,,0.00,WeatherDisplay:10.37,2013-01-13 16:58:00,
2013-01-13 11:03:00,16.4,11.3,30.12,WNW,302,11.0,13.8,80,0.00,CLR,,0.00,WeatherDisplay:10.37,2013-01-13 17:03:00,
2013-01-13 11:08:00,16.3,11.2,30.12,NW,312,10.5,15.0,80,0.00,CLR,,0.00,WeatherDisplay:10.37,2013-01-13 17:08:00,
2013-01-13 11:13:00,16.2,10.8,30.11,NW,309,11.3,17.3,79,0.00,CLR,,0.00,WeatherDisplay:10.37,2013-01-13 17:13:00,
2013-01-13 11:18:00,16.2,11.1,30.11,NW,305,12.3,15.0,80,0.00,CLR,,0.00,WeatherDisplay:10.37,2013-01-13 17:18:00,
2013-01-13 11:23:00,16.2,11.1,30.11,WNW,288,9.8,13.8,80,0.00,CLR,,0.00,WeatherDisplay:10.37,2013-01-13 17:23:00,
2013-01-13 11:28:00,16.3,10.9,30.12,NNW,329,10.1,15.0,79,0.00,CLR,,0.00,WeatherDisplay:10.37,2013-01-13 17:28:00,
2013-01-13 11:33:00,16.3,11.2,30.13,NW,311,11.0,13.8,80,0.00,CLR,,0.00,WeatherDisplay:10.37,2013-01-13 17:33:00,
2013-01-13 11:38:00,16.2,10.8,30.12,North,359,9.4,12.7,79,0.00,CLR,,0.00,WeatherDisplay:10.37,2013-01-13 17:38:00,
2013-01-13 11:43:00,16.1,10.7,30.11,North,351,10.9,16.1,79,0.00,CLR,,0.00,WeatherDisplay:10.37,2013-01-13 17:43:00,
2013-01-13 11:48:00,16.2,11.1,30.12,NW,309,9.7,12.7,80,0.00,CLR,,0.00,WeatherDisplay:10.37,2013-01-13 17:48:00,
2013-01-13 11:53:00,16.2,11.1,30.12,WNW,288,12.1,13.8,80,0.00,CLR,,0.00,WeatherDisplay:10.37,2013-01-13 17:53:00,
2013-01-13 11:58:00,16.2,10.8,30.12,NW,318,11.1,15.0,79,0.00,CLR,,0.00,WeatherDisplay:10.37,2013-01-13 17:58:00,
2013-01-13 12:03:00,16.4,11.0,30.11,WNW,303,12.0,15.0,79,0.00,CLR,,0.00,WeatherDisplay:10.37,2013-01-13 18:03:00,
2013-01-13 12:08:00,16.7,11.3,30.12,NW,305,14.9,17.3,79,0.00,CLR,,0.00,WeatherDisplay:10.37,2013-01-13 18:08:00,
2013-01-13 12:14:00,16.6,10.9,30.12,WNW,297,12.4,16.1,78,0.00,CLR,,0.00,WeatherDisplay:10.37,2013-01-13 18:14:00,
2013-01-13 12:19:00,16.5,11.4,30.11,NW,304,12.5,16.1,80,0.00,CLR,,0.00,WeatherDisplay:10.37,2013-01-13 18:19:00,
2013-01-13 12:24:00,16.4,11.0,30.11,NW,311,13.4,15.0,79,0.00,CLR,,0.00,WeatherDisplay:10.37,2013-01-13 18:24:00,
2013-01-13 12:29:00,16.6,11.5,30.11,NW,316,10.2,13.8,80,0.00,CLR,,0.00,WeatherDisplay:10.37,2013-01-13 18:29:00,
2013-01-13 12:34:00,16.7,11.6,30.10,NW,312,10.5,13.8,80,0.00,CLR,,0.00,WeatherDisplay:10.37,2013-01-13 18:34:00,
2013-01-13 12:39:00,16.8,11.4,30.10,NW,318,11.5,16.1,79,0.00,CLR,,0.00,WeatherDisplay:10.37,2013-01-13 18:39:00,
2013-01-13 12:44:00,16.5,11.1,30.10,NW,308,11.0,15.0,79,0.00,CLR,,0.00,WeatherDisplay:10.37,2013-01-13 18:44:00,
2013-01-13 12:49:00,16.7,11.6,30.11,WNW,285,11.9,16.1,80,0.00,CLR,,0.00,WeatherDisplay:10.37,2013-01-13 18:49:00,
2013-01-13 12:54:00,17.1,11.4,30.10,WNW,295,15.1,20.0,78,0.00,CLR,,0.00,WeatherDisplay:10.37,2013-01-13 18:54:00,
2013-01-13 12:59:00,17.4,11.7,30.09,NW,318,13.6,17.3,78,0.00,CLR,,0.00,WeatherDisplay:10.37,2013-01-13 18:59:00,
2013-01-13 13:04:00,17.1,11.1,30.09,WNW,302,12.1,17.3,77,0.00,CLR,,0.00,WeatherDisplay:10.37,2013-01-13 19:04:00,
2013-01-13 13:09:00,16.7,10.4,30.10,NW,309,13.7,17.3,76,0.00,CLR,,0.00,WeatherDisplay:10.37,2013-01-13 19:09:00,
2013-01-13 13:14:00,16.4,10.7,30.09,NW,314,12.4,13.8,78,0.00,CLR,,0.00,WeatherDisplay:10.37,2013-01-13 19:14:00,
2013-01-13 13:19:00,16.8,11.1,30.09,WNW,293,13.1,16.1,78,0.00,CLR,,0.00,WeatherDisplay:10.37,2013-01-13 19:19:00,
2013-01-13 13:25:00,17.3,11.3,30.09,WNW,302,11.9,15.0,77,0.00,CLR,,0.00,WeatherDisplay:10.37,2013-01-13 19:25:00,
2013-01-13 13:30:00,17.8,12.1,30.09,North,350,12.8,16.1,78,0.00,CLR,,0.00,WeatherDisplay:10.37,2013-01-13 19:30:00,
2013-01-13 13:35:00,18.1,12.1,30.10,NW,305,10.9,14.0,77,0.00,CLR,,0.00,WeatherDisplay:10.37,2013-01-13 19:35:00,
2013-01-13 13:40:00,18.1,11.8,30.10,WNW,299,13.5,16.0,76,0.00,CLR,,0.00,WeatherDisplay:10.37,2013-01-13 19:40:00,
2013-01-13 13:45:00,18.1,12.1,30.10,WNW,293,10.9,15.0,77,0.00,CLR,,0.00,WeatherDisplay:10.37,2013-01-13 19:45:00,
2013-01-13 13:50:00,18.4,12.1,30.10,WNW,303,13.0,17.0,76,0.00,CLR,,0.00,WeatherDisplay:10.37,2013-01-13 19:50:00,
2013-01-13 13:55:00,18.6,13.2,30.10,NW,325,9.9,11.5,79,0.00,CLR,,0.00,WeatherDisplay:10.37,2013-01-13 19:55:00,
2013-01-13 14:00:00,18.8,12.8,30.10,NW,305,11.2,13.8,77,0.00,CLR,,0.00,WeatherDisplay:10.37,2013-01-13 20:00:00,
2013-01-13 14:05:00,18.4,11.5,30.11,NW,314,11.8,15.0,74,0.00,CLR,,0.00,WeatherDisplay:10.37,2013-01-13 20:05:00,
2013-01-13 14:10:00,18.4,12.1,30.12,WNW,299,11.9,15.0,76,0.00,CLR,,0.00,WeatherDisplay:10.37,2013-01-13 20:10:00,
2013-01-13 14:15:00,18.1,11.8,30.12,NW,324,10.2,16.1,76,0.00,CLR,,0.00,WeatherDisplay:10.37,2013-01-13 20:15:00,
2013-01-13 14:20:00,17.7,11.1,30.12,NW,311,12.0,15.0,75,0.00,CLR,,0.00,WeatherDisplay:10.37,2013-01-13 20:20:00,
2013-01-13 14:25:00,17.1,10.8,30.13,WNW,298,10.6,13.0,76,0.00,CLR,,0.00,WeatherDisplay:10.37,2013-01-13 20:25:00,
2013-01-13 14:30:00,17.0,11.0,30.13,WNW,295,10.1,13.8,77,0.00,CLR,,0.00,WeatherDisplay:10.37,2013-01-13 20:30:00,
2013-01-13 14:35:00,17.6,11.3,30.13,WNW,302,11.1,12.7,76,0.00,CLR,,0.00,WeatherDisplay:10.37,2013-01-13 20:35:00,
2013-01-13 14:40:00,18.3,12.6,30.14,NW,305,9.4,11.5,78,0.00,CLR,,0.00,WeatherDisplay:10.37,2013-01-13 20:40:00,
2013-01-13 14:45:00,17.9,11.6,30.14,WNW,294,10.6,12.7,76,0.00,CLR,,0.00,WeatherDisplay:10.37,2013-01-13 20:45:00,
2013-01-13 14:50:00,17.9,11.9,30.14,WNW,295,11.1,11.5,77,0.00,CLR,,0.00,WeatherDisplay:10.37,2013-01-13 20:50:00,
2013-01-13 14:55:00,17.8,11.8,30.15,WNW,295,11.0,13.0,77,0.00,CLR,,0.00,WeatherDisplay:10.37,2013-01-13 20:55:00,
2013-01-13 15:00:00,17.4,11.4,30.15,WNW,297,10.7,12.7,77,0.00,CLR,,0.00,WeatherDisplay:10.37,2013-01-13 21:00:00,
2013-01-13 15:05:00,17.2,11.2,30.16,NW,308,13.2,16.1,77,0.00,CLR,,0.00,WeatherDisplay:10.37,2013-01-13 21:05:00,
2013-01-13 15:10:00,17.4,11.1,30.16,NW,305,10.8,13.0,76,0.00,CLR,,0.00,WeatherDisplay:10.37,2013-01-13 21:10:00,
2013-01-13 15:15:00,17.1,10.8,30.16,NW,322,11.9,15.0,76,0.00,CLR,,0.00,WeatherDisplay:10.37,2013-01-13 21:15:00,
2013-01-13 15:21:00,16.9,10.3,30.16,NW,316,10.1,14.0,75,0.00,CLR,,0.00,WeatherDisplay:10.37,2013-01-13 21:21:00,
2013-01-13 15:26:00,16.8,10.8,30.17,WNW,293,9.9,11.5,77,0.00,CLR,,0.00,WeatherDisplay:10.37,2013-01-13 21:26:00,
2013-01-13 15:31:00,16.8,10.2,30.17,North,351,13.0,18.4,75,0.00,CLR,,0.00,WeatherDisplay:10.37,2013-01-13 21:31:00,
2013-01-13 15:36:00,16.6,10.3,30.17,NW,312,11.7,13.8,76,0.00,CLR,,0.00,WeatherDisplay:10.37,2013-01-13 21:36:00,
2013-01-13 15:41:00,16.7,10.7,30.18,WNW,302,9.1,11.5,77,0.00,CLR,,0.00,WeatherDisplay:10.37,2013-01-13 21:41:00,
2013-01-13 15:46:00,16.9,10.9,30.18,WNW,302,11.0,15.0,77,0.00,CLR,,0.00,WeatherDisplay:10.37,2013-01-13 21:46:00,
2013-01-13 15:51:00,16.8,10.8,30.18,WNW,295,11.4,16.1,77,0.00,CLR,,0.00,WeatherDisplay:10.37,2013-01-13 21:51:00,
2013-01-13 15:56:00,16.7,10.7,30.18,WNW,295,12.2,15.0,77,0.00,CLR,,0.00,WeatherDisplay:10.37,2013-01-13 21:56:00,
2013-01-13 16:01:00,16.8,10.8,30.18,WNW,297,12.0,15.0,77,0.00,CLR,,0.00,WeatherDisplay:10.37,2013-01-13 22:01:00,
2013-01-13 16:06:00,16.5,10.0,30.19,WNW,295,14.1,17.3,75,0.00,CLR,,0.00,WeatherDisplay:10.37,2013-01-13 22:06:00,
2013-01-13 16:11:00,16.3,10.1,30.19,WNW,289,12.9,19.6,76,0.00,CLR,,0.00,WeatherDisplay:10.37,2013-01-13 22:11:00,
2013-01-13 16:16:00,16.1,10.2,30.19,WNW,291,12.1,15.0,77,0.00,CLR,,0.00,WeatherDisplay:10.37,2013-01-13 22:16:00,
2013-01-13 16:21:00,16.0,10.1,30.19,WNW,288,8.4,11.5,77,0.00,CLR,,0.00,WeatherDisplay:10.37,2013-01-13 22:21:00,
2013-01-13 16:26:00,16.0,10.1,30.19,NW,308,11.6,15.0,77,0.00,CLR,,0.00,WeatherDisplay:10.37,2013-01-13 22:26:00,
2013-01-13 16:31:00,15.9,10.0,30.19,NW,312,9.9,11.5,77,0.00,CLR,,0.00,WeatherDisplay:10.37,2013-01-13 22:31:00,
2013-01-13 16:36:00,15.8,9.9,30.19,WNW,297,12.3,16.1,77,0.00,CLR,,0.00,WeatherDisplay:10.37,2013-01-13 22:36:00,
2013-01-13 16:41:00,15.8,10.2,30.20,WNW,302,10.9,16.1,78,0.00,CLR,,0.00,WeatherDisplay:10.37,2013-01-13 22:41:00,
2013-01-13 16:46:00,15.7,10.1,30.20,NW,314,10.9,15.0,78,0.00,CLR,,0.00,WeatherDisplay:10.37,2013-01-13 22:46:00,
2013-01-13 16:51:00,15.5,9.9,30.20,NW,306,10.3,15.0,78,0.00,CLR,,0.00,WeatherDisplay:10.37,2013-01-13 22:51:00,
2013-01-13 16:56:00,15.2,9.6,30.20,NW,314,10.5,12.7,78,0.00,CLR,,0.00,WeatherDisplay:10.37,2013-01-13 22:56:00,
2013-01-13 17:01:00,15.1,9.5,30.21,WNW,298,10.9,12.7,78,0.00,CLR,,0.00,WeatherDisplay:10.37,2013-01-13 23:01:00,
2013-01-13 17:06:00,15.0,9.4,30.21,WNW,302,8.5,11.5,78,0.00,CLR,,0.00,WeatherDisplay:10.37,2013-01-13 23:06:00,
2013-01-13 17:11:00,15.0,9.7,30.22,NW,308,12.3,13.0,79,0.00,CLR,,0.00,WeatherDisplay:10.37,2013-01-13 23:11:00,
2013-01-13 17:17:00,15.0,9.4,30.22,NW,305,11.4,12.7,78,0.00,CLR,,0.00,WeatherDisplay:10.37,2013-01-13 23:17:00,
2013-01-13 17:22:00,14.9,9.3,30.23,WNW,297,10.0,12.7,78,0.00,CLR,,0.00,WeatherDisplay:10.37,2013-01-13 23:22:00,
2013-01-13 17:27:00,14.8,9.2,30.23,NW,314,8.6,9.2,78,0.00,CLR,,0.00,WeatherDisplay:10.37,2013-01-13 23:27:00,
2013-01-13 17:32:00,14.8,9.2,30.23,NW,314,10.1,12.7,78,0.00,CLR,,0.00,WeatherDisplay:10.37,2013-01-13 23:32:00,
2013-01-13 17:37:00,14.6,9.0,30.23,NW,304,9.1,11.5,78,0.00,CLR,,0.00,WeatherDisplay:10.37,2013-01-13 23:37:00,
2013-01-13 17:42:00,14.6,9.0,30.24,WNW,302,10.5,11.5,78,0.00,CLR,,0.00,WeatherDisplay:10.37,2013-01-13 23:42:00,
2013-01-13 17:47:00,14.6,9.0,30.24,WNW,302,10.9,12.7,78,0.00,CLR,,0.00,WeatherDisplay:10.37,2013-01-13 23:47:00,
2013-01-13 17:52:00,14.5,8.9,30.24,NW,304,7.5,9.2,78,0.00,CLR,,0.00,WeatherDisplay:10.37,2013-01-13 23:52:00,
2013-01-13 17:57:00,14.5,8.9,30.24,WNW,298,8.8,11.5,78,0.00,CLR,,0.00,WeatherDisplay:10.37,2013-01-13 23:57:00,
2013-01-13 18:02:00,14.4,8.8,30.24,WNW,302,8.7,10.4,78,0.00,CLR,,0.00,WeatherDisplay:10.37,2013-01-14 00:02:00,
2013-01-13 18:07:00,14.3,9.0,30.24,NW,314,8.2,11.5,79,0.00,CLR,,0.00,WeatherDisplay:10.37,2013-01-14 00:07:00,
2013-01-13 18:12:00,14.2,8.9,30.24,WNW,301,8.7,10.4,79,0.00,CLR,,0.00,WeatherDisplay:10.37,2013-01-14 00:12:00,
2013-01-13 18:17:00,14.2,8.9,30.24,NW,307,8.2,11.5,79,0.00,CLR,,0.00,WeatherDisplay:10.37,2013-01-14 00:17:00,
2013-01-13 18:22:00,14.1,8.8,30.24,NW,308,6.6,9.2,79,0.00,CLR,,0.00,WeatherDisplay:10.37,2013-01-14 00:22:00,
2013-01-13 18:27:00,13.9,8.9,30.24,NW,309,6.0,7.0,80,0.00,CLR,,0.00,WeatherDisplay:10.37,2013-01-14 00:27:00,
2013-01-13 18:32:00,13.9,8.9,30.24,WNW,302,7.2,10.4,80,0.00,CLR,,0.00,WeatherDisplay:10.37,2013-01-14 00:32:00,
2013-01-13 18:37:00,13.9,8.9,30.25,NW,306,8.7,10.4,80,0.00,CLR,,0.00,WeatherDisplay:10.37,2013-01-14 00:37:00,
2013-01-13 18:42:00,13.9,8.9,30.25,NW,305,7.2,9.2,80,0.00,CLR,,0.00,WeatherDisplay:10.37,2013-01-14 00:42:00,
2013-01-13 18:47:00,13.9,8.9,30.25,NW,309,7.1,10.4,80,0.00,CLR,,0.00,WeatherDisplay:10.37,2013-01-14 00:47:00,
2013-01-13 18:52:00,13.8,8.8,30.25,NW,308,8.3,10.4,80,0.00,CLR,,0.00,WeatherDisplay:10.37,2013-01-14 00:52:00,
2013-01-13 18:57:00,13.9,8.9,30.25,WNW,302,8.9,11.5,80,0.00,CLR,,0.00,WeatherDisplay:10.37,2013-01-14 00:57:00,
2013-01-13 19:02:00,14.0,9.0,30.25,NW,308,9.4,11.5,80,0.00,CLR,,0.00,WeatherDisplay:10.37,2013-01-14 01:02:00,
2013-01-13 19:07:00,14.1,8.8,30.25,WNW,298,10.0,11.5,79,0.00,CLR,,0.00,WeatherDisplay:10.37,2013-01-14 01:07:00,
2013-01-13 19:13:00,14.0,9.0,30.26,NW,312,8.1,11.5,80,0.00,CLR,,0.00,WeatherDisplay:10.37,2013-01-14 01:13:00,
2013-01-13 19:18:00,14.1,8.8,30.26,NW,316,10.6,13.8,79,0.00,CLR,,0.00,WeatherDisplay:10.37,2013-01-14 01:18:00,
2013-01-13 19:23:00,14.1,9.1,30.26,NW,308,9.8,11.5,80,0.00,CLR,,0.00,WeatherDisplay:10.37,2013-01-14 01:23:00,
2013-01-13 19:28:00,14.1,9.1,30.27,NW,304,11.7,15.0,80,0.00,CLR,,0.00,WeatherDisplay:10.37,2013-01-14 01:28:00,
2013-01-13 19:33:00,14.1,9.1,30.27,WNW,300,10.6,14.0,80,0.00,CLR,,0.00,WeatherDisplay:10.37,2013-01-14 01:33:00,
2013-01-13 19:38:00,14.1,8.8,30.27,WNW,297,11.3,13.8,79,0.00,CLR,,0.00,WeatherDisplay:10.37,2013-01-14 01:38:00,
2013-01-13 19:43:00,14.1,8.8,30.27,NW,308,11.1,12.7,79,0.00,CLR,,0.00,WeatherDisplay:10.37,2013-01-14 01:43:00,
2013-01-13 19:48:00,14.1,8.8,30.27,NW,308,10.1,12.7,79,0.00,CLR,,0.00,WeatherDisplay:10.37,2013-01-14 01:48:00,
2013-01-13 19:53:00,14.0,8.7,30.27,NW,305,12.0,15.0,79,0.00,CLR,,0.00,WeatherDisplay:10.37,2013-01-14 01:53:00,
2013-01-13 19:58:00,13.9,8.9,30.27,WNW,299,8.8,11.5,80,0.00,CLR,,0.00,WeatherDisplay:10.37,2013-01-14 01:58:00,
2013-01-13 20:03:00,13.9,8.6,30.27,WNW,298,10.0,11.5,79,0.00,CLR,,0.00,WeatherDisplay:10.37,2013-01-14 02:03:00,
2013-01-13 20:08:00,13.9,8.9,30.27,NW,307,9.1,10.4,80,0.00,CLR,,0.00,WeatherDisplay:10.37,2013-01-14 02:08:00,
2013-01-13 20:13:00,13.8,8.8,30.27,NW,309,8.6,11.5,80,0.00,CLR,,0.00,WeatherDisplay:10.37,2013-01-14 02:13:00,
2013-01-13 20:18:00,13.7,8.7,30.28,WNW,287,6.6,9.0,80,0.00,CLR,,0.00,WeatherDisplay:10.37,2013-01-14 02:18:00,
2013-01-13 20:23:00,13.6,8.6,30.28,WNW,300,6.3,8.1,80,0.00,CLR,,0.00,WeatherDisplay:10.37,2013-01-14 02:23:00,
2013-01-13 20:28:00,13.5,8.5,30.28,NW,315,5.5,6.0,80,0.00,CLR,,0.00,WeatherDisplay:10.37,2013-01-14 02:28:00,
2013-01-13 20:33:00,13.3,8.6,30.29,WNW,284,4.4,5.8,81,0.00,CLR,,0.00,WeatherDisplay:10.37,2013-01-14 02:33:00,
2013-01-13 20:38:00,12.9,8.2,30.29,WNW,283,2.9,3.5,81,0.00,CLR,,0.00,WeatherDisplay:10.37,2013-01-14 02:38:00,
2013-01-13 20:43:00,12.6,8.1,30.29,WNW,288,3.2,3.5,82,0.00,CLR,,0.00,WeatherDisplay:10.37,2013-01-14 02:43:00,
2013-01-13 20:48:00,12.4,8.0,30.29,WNW,293,3.8,4.6,82,0.00,CLR,,0.00,WeatherDisplay:10.37,2013-01-14 02:48:00,
2013-01-13 20:53:00,12.2,7.8,30.29,WNW,289,3.4,4.0,82,0.00,CLR,,0.00,WeatherDisplay:10.37,2013-01-14 02:53:00,
2013-01-13 20:58:00,12.2,7.8,30.29,West,278,4.1,5.0,82,0.00,CLR,,0.00,WeatherDisplay:10.37,2013-01-14 02:58:00,
2013-01-13 21:04:00,12.3,8.1,30.29,WNW,291,4.2,5.8,83,0.00,CLR,,0.00,WeatherDisplay:10.37,2013-01-14 03:04:00,
2013-01-13 21:09:00,12.3,7.9,30.29,WNW,287,3.6,4.0,82,0.00,CLR,,0.00,WeatherDisplay:10.37,2013-01-14 03:09:00,
2013-01-13 21:14:00,12.2,8.0,30.29,WNW,285,3.6,4.6,83,0.00,CLR,,0.00,WeatherDisplay:10.37,2013-01-14 03:14:00,
2013-01-13 21:19:00,12.1,7.9,30.29,WNW,290,2.8,3.5,83,0.00,CLR,,0.00,WeatherDisplay:10.37,2013-01-14 03:19:00,
2013-01-13 21:24:00,12.1,7.9,30.30,West,278,2.3,3.5,83,0.00,CLR,,0.00,WeatherDisplay:10.37,2013-01-14 03:24:00,
2013-01-13 21:29:00,11.9,7.7,30.29,WNW,290,2.1,3.5,83,0.00,CLR,,0.00,WeatherDisplay:10.37,2013-01-14 03:29:00,
2013-01-13 21:34:00,11.8,7.6,30.29,West,281,1.9,2.3,83,0.00,CLR,,0.00,WeatherDisplay:10.37,2013-01-14 03:34:00,
2013-01-13 21:39:00,11.6,7.7,30.29,WNW,287,2.0,2.3,84,0.00,CLR,,0.00,WeatherDisplay:10.37,2013-01-14 03:39:00,
2013-01-13 21:44:00,11.4,7.5,30.29,WNW,293,2.0,2.3,84,0.00,CLR,,0.00,WeatherDisplay:10.37,2013-01-14 03:44:00,
2013-01-13 21:49:00,11.1,7.2,30.29,WNW,293,1.9,2.3,84,0.00,CLR,,0.00,WeatherDisplay:10.37,2013-01-14 03:49:00,
2013-01-13 21:54:00,10.8,6.9,30.29,WNW,295,1.7,2.3,84,0.00,CLR,,0.00,WeatherDisplay:10.37,2013-01-14 03:54:00,
2013-01-13 21:59:00,10.7,7.1,30.29,WNW,295,1.3,2.3,85,0.00,CLR,,0.00,WeatherDisplay:10.37,2013-01-14 03:59:00,
2013-01-13 22:04:00,10.6,7.0,30.29,WNW,295,1.6,2.3,85,0.00,,,0.00,WeatherDisplay:10.37,2013-01-14 04:04:00,
2013-01-13 22:10:00,10.5,6.9,30.29,WNW,295,1.0,1.1,85,0.00,,,0.00,WeatherDisplay:10.37,2013-01-14 04:10:00,
2013-01-13 22:15:00,10.3,6.7,30.29,WNW,295,1.0,1.1,85,0.00,,,0.00,WeatherDisplay:10.37,2013-01-14 04:15:00,
2013-01-13 22:20:00,10.3,6.9,30.30,WNW,298,2.0,2.3,86,0.00,,,0.00,WeatherDisplay:10.37,2013-01-14 04:20:00,
2013-01-13 22:25:00,10.2,6.8,30.30,WNW,298,2.0,3.0,86,0.00,,,0.00,WeatherDisplay:10.37,2013-01-14 04:25:00,
2013-01-13 22:30:00,10.3,7.2,30.30,NW,311,2.1,3.5,87,0.00,,,0.00,WeatherDisplay:10.37,2013-01-14 04:30:00,
2013-01-13 22:35:00,10.4,7.3,30.30,NW,305,2.0,2.3,87,0.00,,,0.00,WeatherDisplay:10.37,2013-01-14 04:35:00,
2013-01-13 22:40:00,10.3,6.9,30.30,WNW,302,1.9,2.3,86,0.00,,,0.00,WeatherDisplay:10.37,2013-01-14 04:40:00,
2013-01-13 22:45:00,10.1,6.7,30.30,WNW,302,1.5,2.3,86,0.00,,,0.00,WeatherDisplay:10.37,2013-01-14 04:45:00,
2013-01-13 22:50:00,10.0,6.6,30.30,WNW,290,0.1,1.0,86,0.00,,,0.00,WeatherDisplay:10.37,2013-01-14 04:50:00,
2013-01-13 22:55:00,10.0,6.9,30.31,West,277,1.4,2.3,87,0.00,,,0.00,WeatherDisplay:10.37,2013-01-14 04:55:00,
2013-01-13 23:00:00,10.2,7.1,30.31,West,271,1.0,2.3,87,0.00,,,0.00,WeatherDisplay:10.37,2013-01-14 05:00:00,
2013-01-13 23:03:00,10.2,7.1,30.32,West,267,1.8,2.3,87,0.00,,,0.00,WeatherDisplay:10.37,2013-01-14 05:03:00,
2013-01-13 23:04:00,10.2,7.1,30.32,West,270,2.0,3.5,87,0.00,,,0.00,WeatherDisplay:10.37,2013-01-14 05:04:00,
2013-01-13 23:10:00,10.4,7.3,30.32,West,273,2.0,3.0,87,0.00,,,0.00,WeatherDisplay:10.37,2013-01-14 05:10:00,
2013-01-13 23:15:00,10.7,7.6,30.32,West,276,2.0,3.0,87,0.00,,,0.00,WeatherDisplay:10.37,2013-01-14 05:15:00,
2013-01-13 23:20:00,11.0,7.6,30.32,WNW,288,2.5,3.5,86,0.00,,,0.00,WeatherDisplay:10.37,2013-01-14 05:20:00,
2013-01-13 23:25:00,11.0,7.6,30.32,West,280,3.0,3.0,86,0.00,,,0.00,WeatherDisplay:10.37,2013-01-14 05:25:00,
2013-01-13 23:30:00,11.1,7.7,30.33,West,276,2.0,3.0,86,0.00,,,0.00,WeatherDisplay:10.37,2013-01-14 05:30:00,
2013-01-13 23:35:00,11.2,7.8,30.33,West,278,3.3,4.0,86,0.00,,,0.00,WeatherDisplay:10.37,2013-01-14 05:35:00,
2013-01-13 23:40:00,11.3,7.9,30.32,WNW,291,3.9,4.0,86,0.00,,,0.00,WeatherDisplay:10.37,2013-01-14 05:40:00,
2013-01-13 23:45:00,11.2,7.6,30.33,WNW,298,2.9,3.5,85,0.00,,,0.00,WeatherDisplay:10.37,2013-01-14 05:45:00,
2013-01-13 23:50:00,11.1,7.7,30.33,WNW,295,2.8,3.5,86,0.00,,,0.00,WeatherDisplay:10.37,2013-01-14 05:50:00,
2013-01-13 23:55:00,11.2,7.8,30.33,WNW,294,3.0,3.5,86,0.00,,,0.00,WeatherDisplay:10.37,2013-01-14 05:55:00,